Time;durP1;ratioP1;P1;durP2;ratioP2;P2;SDS_P1;SDS_P2;PMS_P1;PMS_P2;Temp;Humidity;BMP_temperature;BMP_pressure;BME280_temperature;BME280_humidity;BME280_pressure;Samples;Min_cycle;Max_cycle;Signal;HPM_P1;HPM_P2
2022/01/22 10:50:45;;;;;;;3.70;2.60;;;;;;;4.81;98.11;100323.06;5149505;27;20583;-83
2022/01/22 10:53:13;;;;;;;2.93;2.63;;;;;;;5.29;96.48;100324.00;5145017;27;40232;-83
2022/01/22 10:56:01;;;;;;;3.73;2.80;;;;;;;5.94;92.57;100339.44;5131348;27;40861;-82
2022/01/22 10:58:29;;;;;;;2.67;2.37;;;;;;;6.20;89.37;100328.38;5143863;27;43603;-82
2022/01/22 11:01:03;;;;;;;2.37;2.13;;;;;;;6.55;87.06;100328.50;5128249;27;42941;-83
2022/01/22 11:03:34;;;;;;;2.63;2.37;;;;;;;6.43;84.92;100278.75;5128286;27;38972;-83
2022/01/22 11:06:08;;;;;;;4.43;2.93;;;;;;;6.71;83.49;100306.19;5129515;27;41993;-83
2022/01/22 11:08:37;;;;;;;2.37;2.17;;;;;;;6.98;82.03;100333.63;5124485;27;42225;-83
2022/01/22 11:11:04;;;;;;;2.77;2.50;;;;;;;6.97;81.65;100312.59;5128658;27;41009;-83
2022/01/22 11:13:32;;;;;;;2.77;2.17;;;;;;;7.11;80.76;100316.63;5127251;27;40054;-83
2022/01/22 11:16:00;;;;;;;3.40;2.50;;;;;;;7.21;79.89;100330.41;5127616;27;40007;-83
2022/01/22 11:18:29;;;;;;;3.43;2.73;;;;;;;7.27;79.32;100327.63;5129089;27;41802;-85
2022/01/22 11:21:00;;;;;;;4.33;2.70;;;;;;;7.38;79.08;100345.81;5128772;27;41254;-84
2022/01/22 11:23:30;;;;;;;2.73;1.83;;;;;;;7.42;78.89;100337.75;5140463;27;40574;-82
2022/01/22 11:25:58;;;;;;;3.13;2.73;;;;;;;7.50;78.62;100335.81;5128296;27;40933;-82
2022/01/22 11:28:28;;;;;;;3.27;2.30;;;;;;;7.42;77.99;100315.81;5128867;27;42310;-82
2022/01/22 11:30:57;;;;;;;3.50;1.90;;;;;;;7.50;77.77;100320.00;5127952;27;41046;-83
2022/01/22 11:33:26;;;;;;;2.53;2.30;;;;;;;7.57;77.34;100326.81;5127951;27;40027;-82
2022/01/22 11:36:03;;;;;;;3.40;2.77;;;;;;;7.69;77.12;100335.31;5146734;27;41048;-82
2022/01/22 11:38:38;;;;;;;4.13;2.60;;;;;;;7.63;77.04;100330.22;5129731;27;41675;-82
2022/01/22 11:41:08;;;;;;;3.93;2.57;;;;;;;7.71;77.02;100333.50;5130231;27;41115;-83
2022/01/22 11:44:17;;;;;;;2.63;2.03;;;;;;;7.72;76.10;100333.47;5129071;27;39310;-81
2022/01/22 11:47:08;;;;;;;4.33;2.57;;;;;;;7.65;76.44;100325.75;5134675;27;42970;-82
2022/01/22 11:49:36;;;;;;;3.00;2.20;;;;;;;7.82;76.54;100349.88;5125071;27;43184;-84
2022/01/22 11:52:25;;;;;;;3.00;2.70;;;;;;;7.83;75.86;100343.72;5144168;27;41439;-84
2022/01/22 11:54:59;;;;;;;3.50;2.27;;;;;;;7.82;75.54;100327.00;5111390;27;38747;-83
2022/01/22 11:57:28;;;;;;;3.63;2.27;;;;;;;7.88;75.11;100355.88;5130121;27;40698;-83
2022/01/22 12:00:20;;;;;;;2.47;2.00;;;;;;;7.91;75.64;100357.56;5126005;27;41729;-83
2022/01/22 12:03:18;;;;;;;3.23;2.90;;;;;;;7.73;75.32;100319.38;5108474;27;41522;-83
2022/01/22 12:06:10;;;;;;;2.97;2.50;;;;;;;7.85;75.00;100349.81;5112975;27;39485;-83
2022/01/22 12:09:10;;;;;;;3.87;2.40;;;;;;;7.89;75.17;100357.59;5125815;27;41700;-83
2022/01/22 12:14:53;;;;;;;3.97;2.83;;;;;;;8.01;75.14;100356.41;5130321;27;41325;-81
2022/01/22 12:18:00;;;;;;;2.40;2.20;;;;;;;7.98;74.67;100356.47;5115506;27;39873;-80
2022/01/22 12:21:30;;;;;;;3.60;2.53;;;;;;;8.02;74.76;100339.66;5113925;27;41169;-82
2022/01/22 12:23:57;;;;;;;3.10;2.40;;;;;;;8.17;74.34;100355.03;5111141;27;41971;-82
2022/01/22 12:26:45;;;;;;;3.43;2.23;;;;;;;8.18;74.21;100340.06;5115489;27;40771;-80
2022/01/22 12:29:41;;;;;;;2.60;2.40;;;;;;;8.20;74.52;100333.84;5112267;27;38672;-81
2022/01/22 12:32:24;;;;;;;3.57;2.57;;;;;;;8.29;74.07;100346.75;5131414;27;40906;-82
2022/01/22 12:35:08;;;;;;;2.90;2.47;;;;;;;8.34;73.78;100345.81;5115334;27;42154;-81
2022/01/22 12:37:44;;;;;;;4.43;2.47;;;;;;;8.40;73.69;100361.47;5144314;27;42145;-82
2022/01/22 12:40:12;;;;;;;2.87;2.50;;;;;;;8.46;73.96;100364.78;5142939;27;38981;-84
2022/01/22 12:43:11;;;;;;;3.40;2.83;;;;;;;8.48;73.08;100356.81;5107218;28;40045;-83
2022/01/22 12:45:44;;;;;;;2.77;2.47;;;;;;;8.48;73.05;100359.47;5111320;27;41567;-82
2022/01/22 12:48:15;;;;;;;2.87;2.37;;;;;;;8.49;73.12;100348.00;5138471;27;40923;-81
2022/01/22 12:50:43;;;;;;;3.00;2.60;;;;;;;8.54;72.57;100356.63;5114936;27;40319;-82
2022/01/22 12:53:15;;;;;;;3.03;2.47;;;;;;;8.55;72.77;100356.56;5112250;27;40133;-81
2022/01/22 12:58:39;;;;;;;2.20;2.00;;;;;;;8.62;72.46;100367.84;5114169;27;42676;-82
2022/01/22 13:01:19;;;;;;;2.17;1.90;;;;;;;8.58;72.16;100371.47;5111565;28;38801;-81
2022/01/22 13:03:51;;;;;;;3.20;2.40;;;;;;;8.46;72.36;100361.28;5111887;28;40641;-85
2022/01/22 13:06:22;;;;;;;3.43;2.33;;;;;;;8.52;72.05;100371.66;5111424;28;41918;-81
2022/01/22 13:09:19;;;;;;;2.13;1.90;;;;;;;8.39;72.20;100349.19;5111811;28;41168;-84
2022/01/22 13:11:52;;;;;;;2.33;2.07;;;;;;;8.40;72.17;100345.63;5119838;27;39531;-83
2022/01/22 13:14:31;;;;;;;2.50;2.17;;;;;;;8.40;72.37;100343.00;5097812;27;40649;-84
2022/01/22 13:16:59;;;;;;;2.23;1.60;;;;;;;8.50;71.93;100370.84;5101147;28;41867;-83
2022/01/22 13:19:31;;;;;;;4.27;2.53;;;;;;;8.40;71.79;100366.75;5094593;28;40985;-83
2022/01/22 13:22:00;;;;;;;2.33;1.80;;;;;;;8.35;72.09;100358.09;5106104;27;39130;-83
2022/01/22 13:24:30;;;;;;;3.07;2.10;;;;;;;8.34;72.04;100345.81;5132034;27;42626;-83
2022/01/22 13:27:03;;;;;;;1.80;1.50;;;;;;;8.43;72.54;100362.22;5110369;27;41826;-83
2022/01/22 13:29:37;;;;;;;2.13;1.90;;;;;;;8.41;72.63;100357.91;5096244;27;41173;-83
2022/01/22 13:32:13;;;;;;;1.93;1.73;;;;;;;8.36;72.51;100349.25;5116659;27;39837;-82
2022/01/22 13:35:05;;;;;;;2.30;1.93;;;;;;;8.43;72.31;100356.09;5117620;27;40575;-83
2022/01/22 13:49:23;;;;;;;4.30;2.13;;;;;;;8.22;72.49;100342.59;5114106;27;42877;-83
2022/01/22 13:51:51;;;;;;;3.37;2.03;;;;;;;8.27;72.71;100345.97;5112290;27;42169;-83
2022/01/22 13:54:19;;;;;;;2.90;2.03;;;;;;;8.30;72.64;100340.56;5109684;27;39222;-84
2022/01/22 13:56:51;;;;;;;2.50;1.83;;;;;;;8.42;72.82;100357.00;5111605;27;40792;-84
2022/01/22 13:59:21;;;;;;;2.27;2.03;;;;;;;8.42;72.50;100357.00;5120536;27;43096;-85
2022/01/22 14:02:08;;;;;;;1.73;1.47;;;;;;;8.30;72.10;100337.94;5091656;28;42146;-82
2022/01/22 14:04:42;;;;;;;2.00;1.60;;;;;;;8.40;72.11;100350.91;5110685;28;39276;-83
2022/01/22 14:07:21;;;;;;;2.87;2.00;;;;;;;8.32;71.92;100337.06;5111128;27;41643;-83
2022/01/22 14:09:59;;;;;;;2.87;1.63;;;;;;;8.23;72.14;100322.34;5098519;27;42041;-82
2022/01/22 14:12:32;;;;;;;1.93;1.77;;;;;;;8.36;71.92;100349.25;5113866;27;41295;-83
2022/01/22 14:15:04;;;;;;;2.77;2.20;;;;;;;8.23;71.71;100328.47;5114693;27;38863;-84
2022/01/22 14:17:49;;;;;;;1.93;1.70;;;;;;;8.40;71.73;100358.84;5113701;27;41098;-84
2022/01/22 14:20:16;;;;;;;2.87;1.87;;;;;;;8.01;72.09;100295.72;5112680;27;41692;-83
2022/01/22 14:23:00;;;;;;;2.63;1.90;;;;;;;8.31;71.62;100357.28;5113173;27;42134;-82
2022/01/22 14:25:29;;;;;;;2.83;1.80;;;;;;;8.30;72.32;100363.47;5130513;27;40050;-84
2022/01/22 14:28:05;;;;;;;2.83;1.90;;;;;;;8.29;72.33;100365.22;5114243;27;40720;-84
2022/01/22 14:30:45;;;;;;;2.93;1.73;;;;;;;8.29;72.14;100359.97;5114285;27;41941;-83
2022/01/22 14:33:17;;;;;;;2.57;1.93;;;;;;;8.23;72.35;100349.59;5113136;27;41490;-83
2022/01/22 14:35:47;;;;;;;4.80;2.10;;;;;;;8.16;72.36;100337.47;5113677;27;39219;-83
2022/01/22 14:38:39;;;;;;;2.80;2.33;;;;;;;8.25;72.71;100358.34;5112715;27;41985;-84
2022/01/22 14:44:24;;;;;;;5.07;2.67;;;;;;;8.09;72.74;100356.16;5115056;27;42265;-84
2022/01/22 14:47:02;;;;;;;2.13;1.90;;;;;;;8.04;72.65;100347.50;5108793;28;39050;-83
2022/01/22 14:49:34;;;;;;;2.30;1.80;;;;;;;7.90;72.69;100329.47;5108379;28;41863;-83
2022/01/22 14:52:04;;;;;;;2.03;1.70;;;;;;;7.89;72.89;100343.56;5113194;27;41762;-84
2022/01/22 14:54:37;;;;;;;2.20;1.77;;;;;;;7.83;72.71;100339.31;5110832;27;41087;-84
2022/01/22 14:57:07;;;;;;;2.37;1.67;;;;;;;7.87;72.87;100350.63;5108920;28;38883;-82
